Strona główna
METAR-TAF:

METAR-TAF

Lotnisko :

Port lotniczy Bordż Mochtar

Bordj Badji Mokhtar, Algieria

Szerokość geograficzna: 21-22-30N, Długość geograficzna: 000-55-26E, wysokość: 396 m

Aktualna obserwacja pogody

Raport powstał 11 minut temu, godzina 18:00 UTC
Wiatr 10 kt od północny wschód
Temperatura 43°C
Ciśnienie 1004 hPa
Widzialność 10 km lub więcej
Brak chmur poniżej 1500 m i brak chmur cumulonimbus

METAR: DATM 201800Z 05010KT CAVOK 43/// Q1004

czas: 19:11 (18:11 UTC)

Prognoza

Raport powstał 1 godzina i 11 minut temu, godzina 17:00 UTC
Prognoza ważna od 20 godzina 18 UTC do 21 godzina 03 UTC
Wiatr 8 kt od wschodnio-północny wschód
Widzialność 10 km lub więcej
Brak chmur poniżej 1500 m i brak chmur cumulonimbus

TAF: DATM 201700Z 2018/2103 06008KT CAVOK

Obserwacja i prognoza pogody dla ponad 4000 lotnisk (raport METAR i TAF).

Dostępne stacje oznaczono żółtymi i czerwonymi punktami na mapie.

Najedź kursorem aby zobaczyć nazwę stacji.

Kliknij aby zobaczyć obserwacje i prognozy pogody.

Aby zmienić mapę: kliknij na zielony przycisk z czarnym krzyżykiem, aby powiększyć; na zielony przycisk z myślnikiem, aby pomniejszyć; na zielone strzałki, aby przejść do map sąsiednich.


METAR-TAF: